Time;durP1;ratioP1;P1;durP2;ratioP2;P2;SDS_P1;SDS_P2;PMS_P1;PMS_P2;Temp;Humidity;BMP_temperature;BMP_pressure;BME280_temperature;BME280_humidity;BME280_pressure;Samples;Min_cycle;Max_cycle;Signal;HPM_P1;HPM_P2
2021/10/29 04:17:07;;;;;;;2.20;2.07;;;;;;;2.65;100.00;98663.69;5079372;23;20309;-72
2021/10/29 04:19:33;;;;;;;5.05;3.08;;;;;;;2.65;100.00;98668.81;4879766;29;20037;-72
2021/10/29 04:22:00;;;;;;;3.15;2.92;;;;;;;2.64;100.00;98662.00;4879658;29;20398;-72
2021/10/29 04:24:26;;;;;;;2.35;2.15;;;;;;;2.58;100.00;98661.94;4879671;29;20021;-72
2021/10/29 04:26:51;;;;;;;1.58;1.50;;;;;;;2.59;100.00;98668.75;4879103;29;20037;-72
2021/10/29 04:29:18;;;;;;;5.47;3.45;;;;;;;2.55;100.00;98665.28;4917767;23;20036;-73
2021/10/29 04:31:51;;;;;;;1.90;1.70;;;;;;;2.58;100.00;98667.03;4892846;29;20041;-74
2021/10/29 04:34:19;;;;;;;2.72;2.53;;;;;;;2.61;100.00;98655.97;4879493;29;20036;-74
2021/10/29 04:36:44;;;;;;;1.85;1.75;;;;;;;2.55;100.00;98661.88;4879568;29;20025;-74
2021/10/29 04:39:18;;;;;;;4.80;3.35;;;;;;;2.56;100.00;98658.47;4879398;29;20037;-74
2021/10/29 04:41:49;;;;;;;1.77;1.50;;;;;;;2.48;100.00;98665.22;4865240;29;20029;-74
2021/10/29 04:44:16;;;;;;;2.63;2.42;;;;;;;2.43;100.00;98656.63;4871528;29;20112;-72
2021/10/29 04:46:41;;;;;;;1.70;1.60;;;;;;;2.29;100.00;98662.44;4879332;29;20033;-74
2021/10/29 04:49:07;;;;;;;1.92;1.83;;;;;;;2.22;100.00;98668.28;4879271;29;20040;-72
2021/10/29 04:51:33;;;;;;;1.30;1.30;;;;;;;2.24;100.00;98661.50;4878844;29;20112;-72
2021/10/29 04:53:59;;;;;;;2.75;2.28;;;;;;;2.21;100.00;98655.50;4878841;29;20033;-72
2021/10/29 04:56:25;;;;;;;2.50;2.30;;;;;;;2.18;100.00;98656.31;4878318;29;20081;-72
2021/10/29 04:58:50;;;;;;;3.30;2.10;;;;;;;2.10;100.00;98651.94;4879082;29;20039;-72
2021/10/29 05:01:15;;;;;;;2.28;1.95;;;;;;;2.06;100.00;98648.47;4878694;29;20100;-75
2021/10/29 05:03:41;;;;;;;4.60;2.63;;;;;;;2.05;100.00;98651.88;4879029;29;20471;-74
2021/10/29 05:06:07;;;;;;;2.95;2.75;;;;;;;1.98;100.00;98650.06;4879196;29;20033;-74
2021/10/29 05:08:35;;;;;;;4.95;3.22;;;;;;;2.00;100.00;98635.63;4878987;29;20057;-74
2021/10/29 05:11:01;;;;;;;4.68;3.00;;;;;;;1.93;100.00;98644.03;4876425;29;20406;-74
2021/10/29 05:13:26;;;;;;;3.17;2.90;;;;;;;1.98;100.00;98645.84;4869796;29;20030;-74
2021/10/29 05:15:51;;;;;;;2.45;2.17;;;;;;;1.98;100.00;98642.38;4878809;29;20308;-74
2021/10/29 05:18:18;;;;;;;2.17;1.92;;;;;;;1.97;100.00;98650.91;4878750;29;20029;-74
2021/10/29 05:20:44;;;;;;;2.42;2.15;;;;;;;1.92;100.00;98642.31;4879039;29;20097;-74
2021/10/29 05:23:10;;;;;;;3.03;2.83;;;;;;;1.88;100.00;98645.66;4878600;29;20143;-74
2021/10/29 05:25:35;;;;;;;1.88;1.77;;;;;;;1.78;100.00;98650.63;4878578;29;20029;-74
2021/10/29 05:28:01;;;;;;;3.55;3.33;;;;;;;1.83;100.00;98645.59;4877386;29;20048;-74
2021/10/29 05:30:26;;;;;;;2.97;2.53;;;;;;;1.89;100.00;98643.16;4878324;29;20033;-75
2021/10/29 05:32:52;;;;;;;2.92;2.67;;;;;;;1.93;100.00;98649.13;4878392;29;20076;-75
2021/10/29 05:35:17;;;;;;;3.60;3.38;;;;;;;1.91;100.00;98646.56;4878432;29;20029;-75
2021/10/29 05:37:43;;;;;;;3.25;3.05;;;;;;;1.89;100.00;98653.38;4878503;29;20107;-75
2021/10/29 05:40:09;;;;;;;10.38;3.13;;;;;;;1.84;100.00;98643.88;4877863;29;20036;-75
2021/10/29 05:42:34;;;;;;;2.95;2.65;;;;;;;1.91;100.00;98645.72;4871341;29;20033;-74
2021/10/29 05:45:01;;;;;;;2.47;1.98;;;;;;;1.86;100.00;98642.25;4872608;29;20056;-75
2021/10/29 05:47:26;;;;;;;1.67;1.55;;;;;;;1.88;100.00;98641.41;4878337;29;20063;-74
2021/10/29 05:49:53;;;;;;;2.38;2.17;;;;;;;1.96;100.00;98641.53;4877007;29;20053;-74
2021/10/29 05:52:20;;;;;;;5.95;2.83;;;;;;;1.92;100.00;98642.31;4876888;29;20033;-74
2021/10/29 05:57:23;;;;;;;14.95;3.70;;;;;;;1.83;100.00;98631.97;4878362;29;20097;-74
2021/10/29 05:59:50;;;;;;;3.22;2.95;;;;;;;1.86;100.00;98632.03;4878242;29;20036;-74
2021/10/29 06:02:16;;;;;;;1.70;1.60;;;;;;;1.91;100.00;98627.84;4877940;29;20052;-75
2021/10/29 06:04:41;;;;;;;2.65;2.45;;;;;;;1.88;100.00;98635.44;4876914;29;20021;-74
2021/10/29 06:07:06;;;;;;;2.40;2.13;;;;;;;1.84;100.00;98628.56;4878248;29;20026;-72
2021/10/29 06:09:32;;;;;;;2.10;1.95;;;;;;;1.92;100.00;98627.84;4878058;29;20402;-73
2021/10/29 06:11:57;;;;;;;2.17;2.08;;;;;;;1.84;100.00;98629.44;4873326;29;20044;-72
2021/10/29 06:14:23;;;;;;;2.75;2.65;;;;;;;1.92;100.00;98624.44;4870259;29;20036;-72
2021/10/29 06:16:49;;;;;;;1.88;1.77;;;;;;;1.92;100.00;98626.97;4878064;29;20025;-72
2021/10/29 06:19:15;;;;;;;4.45;3.00;;;;;;;1.89;100.00;98626.97;4878200;29;20399;-72
2021/10/29 06:24:13;;;;;;;2.38;2.28;;;;;;;1.89;100.00;98632.94;4878005;29;20402;-72
2021/10/29 06:26:43;;;;;;;2.60;2.40;;;;;;;1.98;100.00;98632.16;4876894;29;20312;-73
2021/10/29 06:29:08;;;;;;;5.88;4.07;;;;;;;2.05;100.00;98634.00;4878037;29;20033;-72
2021/10/29 06:31:34;;;;;;;2.13;2.03;;;;;;;2.15;100.00;98630.72;4877694;29;20108;-75
2021/10/29 06:33:59;;;;;;;2.40;2.30;;;;;;;2.20;100.00;98636.75;4877937;29;20028;-73
2021/10/29 06:36:25;;;;;;;2.95;2.75;;;;;;;2.35;100.00;98638.63;4878049;29;20029;-73
2021/10/29 06:38:50;;;;;;;3.38;3.15;;;;;;;2.35;100.00;98642.88;4877919;29;20021;-74
2021/10/29 06:41:15;;;;;;;3.55;3.22;;;;;;;2.40;100.00;98641.25;4874276;29;20033;-73
2021/10/29 06:46:16;;;;;;;4.47;3.33;;;;;;;2.60;100.00;98644.88;4859364;29;20136;-73
2021/10/29 07:42:32;;;;;;;3.25;2.05;;;;;;;5.58;92.18;98623.47;4869006;29;20044;-73
2021/10/29 07:44:57;;;;;;;2.45;2.25;;;;;;;5.91;89.45;98617.47;4866686;29;20410;-73
2021/10/29 07:47:22;;;;;;;2.63;2.22;;;;;;;7.05;85.36;98611.81;4861785;29;20030;-73
2021/10/29 07:49:48;;;;;;;2.80;2.60;;;;;;;9.39;73.65;98607.50;4861709;29;20430;-73
2021/10/29 07:52:14;;;;;;;3.80;2.22;;;;;;;9.88;69.96;98606.66;4861583;29;20029;-73
2021/10/29 07:54:44;;;;;;;3.13;1.63;;;;;;;10.93;66.54;98601.13;4861677;29;20026;-72
2021/10/29 07:57:19;;;;;;;2.35;2.15;;;;;;;11.86;62.09;98608.44;4861623;29;20104;-73
2021/10/29 07:59:47;;;;;;;2.38;1.92;;;;;;;11.99;60.80;98606.34;4861544;29;20029;-74
2021/10/29 08:02:12;;;;;;;4.25;2.20;;;;;;;12.77;56.98;98606.78;4860634;29;20053;-74
2021/10/29 08:04:38;;;;;;;6.80;3.38;;;;;;;11.59;60.05;98603.00;4861434;29;20112;-73
2021/10/29 08:07:03;;;;;;;2.97;2.67;;;;;;;11.89;60.01;98600.53;4861524;29;20502;-74
2021/10/29 08:09:29;;;;;;;3.63;3.03;;;;;;;11.28;62.08;98607.22;4861258;29;20029;-74
2021/10/29 08:11:55;;;;;;;2.90;2.03;;;;;;;11.95;60.41;98600.41;4866785;29;20032;-74
2021/10/29 08:14:22;;;;;;;2.05;1.48;;;;;;;11.28;62.10;98613.28;4872218;29;20021;-74
2021/10/29 08:16:48;;;;;;;2.85;2.08;;;;;;;11.27;62.84;98610.72;4880236;29;20099;-73
2021/10/29 08:19:13;;;;;;;2.05;1.65;;;;;;;13.98;55.75;98595.13;4879691;29;20120;-74
2021/10/29 08:21:39;;;;;;;2.22;2.03;;;;;;;13.38;56.34;98599.69;4879525;29;20033;-74
2021/10/29 08:24:04;;;;;;;2.28;1.83;;;;;;;14.84;52.27;98592.84;4879597;29;20041;-74
2021/10/29 08:26:30;;;;;;;2.35;1.58;;;;;;;14.14;52.62;98612.75;4879593;29;20084;-74
2021/10/29 08:28:56;;;;;;;3.33;2.03;;;;;;;14.89;51.97;98601.34;4879489;29;20504;-74
2021/10/29 08:31:21;;;;;;;2.22;1.58;;;;;;;16.85;45.57;98603.59;4879289;29;20033;-74
2021/10/29 08:33:47;;;;;;;2.28;1.88;;;;;;;17.60;45.08;98595.63;4879531;29;20052;-74
2021/10/29 08:36:12;;;;;;;3.53;2.03;;;;;;;17.01;44.68;98604.56;4879585;29;20479;-74
2021/10/29 08:38:40;;;;;;;2.67;1.33;;;;;;;17.86;43.72;98585.63;4879223;29;20494;-74
2021/10/29 08:41:05;;;;;;;1.48;1.38;;;;;;;18.31;43.64;98589.41;4874287;29;20021;-74
2021/10/29 08:43:31;;;;;;;2.50;2.00;;;;;;;18.26;42.32;98596.69;4875877;29;20429;-74
2021/10/29 08:45:56;;;;;;;4.47;2.05;;;;;;;19.11;41.51;98586.84;4860569;29;20483;-73
2021/10/29 08:48:25;;;;;;;2.45;1.35;;;;;;;18.12;42.59;98589.53;4860760;29;20407;-74
2021/10/29 08:50:50;;;;;;;2.35;1.42;;;;;;;19.07;40.60;98585.31;4859699;29;20421;-74
2021/10/29 08:53:16;;;;;;;1.50;1.30;;;;;;;20.15;39.59;98588.72;4858646;29;20359;-74
2021/10/29 08:55:41;;;;;;;4.03;2.05;;;;;;;19.17;40.74;98586.50;4864035;29;20021;-74
2021/10/29 08:58:08;;;;;;;2.42;1.70;;;;;;;20.24;39.55;98590.78;4863846;29;20029;-74
2021/10/29 09:00:41;;;;;;;2.60;1.75;;;;;;;19.29;40.41;98582.31;4860322;29;20532;-74
2021/10/29 09:03:11;;;;;;;1.90;1.67;;;;;;;20.97;37.84;98568.75;4859928;29;20022;-75
2021/10/29 09:05:46;;;;;;;1.48;1.20;;;;;;;22.53;35.70;98569.78;4862713;29;20593;-75
2021/10/29 09:08:33;;;;;;;1.35;1.25;;;;;;;21.83;35.88;98568.44;4871259;29;20029;-74
2021/10/29 09:33:07;;;;;;;3.08;2.00;;;;;;;19.17;41.48;98533.97;4878156;29;20096;-76
2021/10/29 09:35:36;;;;;;;2.45;1.92;;;;;;;17.89;44.21;98530.41;4878651;29;20108;-76
2021/10/29 09:38:08;;;;;;;6.50;1.93;;;;;;;19.35;42.27;98520.72;4878439;29;20109;-75
2021/10/29 09:40:40;;;;;;;2.42;1.83;;;;;;;21.11;38.23;98518.66;4878402;29;20028;-75
2021/10/29 09:43:14;;;;;;;1.70;1.50;;;;;;;22.15;35.44;98517.00;4867295;29;20498;-76
2021/10/29 09:45:51;;;;;;;1.85;1.75;;;;;;;20.43;38.07;98534.41;4841282;29;20041;-76
2021/10/29 09:48:24;;;;;;;1.85;1.75;;;;;;;18.71;40.58;98536.53;4843287;29;20142;-77
2021/10/29 09:50:58;;;;;;;1.92;1.65;;;;;;;20.10;39.87;98527.63;4867694;29;20108;-76
2021/10/29 09:56:33;;;;;;;2.30;2.03;;;;;;;19.71;39.60;98534.34;4860184;29;20523;-78
2021/10/29 09:59:01;;;;;;;1.50;1.40;;;;;;;22.65;34.76;98525.78;4859840;29;20057;-75
2021/10/29 10:01:31;;;;;;;1.63;1.52;;;;;;;22.13;35.36;98534.72;4859483;29;20026;-75
2021/10/29 10:04:01;;;;;;;2.08;1.75;;;;;;;24.01;32.88;98528.09;4859416;29;20053;-75
2021/10/29 10:06:30;;;;;;;4.82;3.05;;;;;;;25.09;31.27;98521.31;4859597;29;20034;-74
2021/10/29 10:08:58;;;;;;;1.65;1.08;;;;;;;25.37;30.89;98523.38;4859416;29;20040;-75
2021/10/29 10:11:26;;;;;;;1.75;1.23;;;;;;;24.12;31.47;98530.75;4861042;29;20503;-74
2021/10/29 10:13:54;;;;;;;2.37;1.20;;;;;;;23.08;33.29;98528.00;4870373;29;20029;-75
2021/10/29 10:16:20;;;;;;;2.13;1.67;;;;;;;23.44;33.24;98523.59;4878110;29;20029;-77
2021/10/29 10:18:46;;;;;;;1.50;1.30;;;;;;;23.75;33.84;98515.06;4876918;29;20031;-77
2021/10/29 10:21:18;;;;;;;6.47;2.42;;;;;;;25.00;30.51;98516.75;4869879;29;20516;-77
2021/10/29 10:23:46;;;;;;;1.95;1.30;;;;;;;25.02;30.74;98507.69;4878440;29;20036;-77
2021/10/29 10:26:27;;;;;;;1.30;1.20;;;;;;;24.02;31.86;98512.09;4880749;29;20036;-75
2021/10/29 10:45:49;;;;;;;3.00;1.65;;;;;;;25.42;30.21;98490.34;4880944;29;20487;-73
2021/10/29 10:48:29;;;;;;;1.20;1.10;;;;;;;23.94;33.12;98498.63;4879940;29;20052;-73
2021/10/29 10:51:37;;;;;;;0.90;0.90;;;;;;;23.62;33.94;98495.75;4873220;29;20453;-73
2021/10/29 11:00:11;;;;;;;1.65;1.50;;;;;;;23.20;35.21;98489.22;4881387;29;20033;-74
2021/10/29 11:05:15;;;;;;;2.55;1.83;;;;;;;23.04;36.35;98479.81;4870026;29;20033;-74
2021/10/29 11:10:18;;;;;;;2.85;1.70;;;;;;;22.74;36.31;98472.28;4881018;29;20028;-74
2021/10/29 11:12:44;;;;;;;3.70;2.22;;;;;;;22.63;36.42;98468.72;4872599;29;20039;-74
2021/10/29 11:15:17;;;;;;;3.47;1.85;;;;;;;22.09;37.41;98472.50;4877549;29;20024;-74
2021/10/29 11:17:48;;;;;;;2.55;1.58;;;;;;;22.16;36.95;98460.63;4880815;29;20116;-74
2021/10/29 11:23:06;;;;;;;2.95;1.73;;;;;;;22.05;38.15;98452.59;4880341;29;20033;-74
2021/10/29 11:25:53;;;;;;;2.70;1.63;;;;;;;23.86;35.45;98445.44;4880640;29;20036;-74
2021/10/29 11:28:26;;;;;;;3.83;1.77;;;;;;;22.91;35.67;98447.31;4880557;29;20372;-74
2021/10/29 11:30:56;;;;;;;2.15;1.95;;;;;;;24.63;33.69;98434.94;4880455;29;20029;-74
2021/10/29 11:33:22;;;;;;;2.80;1.85;;;;;;;23.07;36.59;98441.75;4871260;29;20025;-74
2021/10/29 11:36:01;;;;;;;2.15;1.95;;;;;;;22.33;37.66;98435.66;4874148;29;20399;-75
2021/10/29 11:38:30;;;;;;;3.78;2.58;;;;;;;22.37;38.07;98437.13;4879613;29;20028;-73
2021/10/29 11:40:56;;;;;;;5.30;3.72;;;;;;;22.09;39.14;98435.56;4878582;29;20035;-73
2021/10/29 11:43:24;;;;;;;2.63;2.30;;;;;;;23.17;36.67;98442.75;4870674;29;20030;-73
2021/10/29 11:45:50;;;;;;;5.63;2.40;;;;;;;19.87;43.34;98444.03;4880139;29;20040;-73
2021/10/29 11:48:16;;;;;;;2.10;1.73;;;;;;;22.71;38.39;98426.75;4880240;29;20320;-74
2021/10/29 11:50:43;;;;;;;5.93;2.00;;;;;;;24.00;35.80;98420.53;4880050;29;20029;-73
2021/10/29 11:53:10;;;;;;;3.20;2.42;;;;;;;23.82;35.82;98418.34;4880026;29;20025;-74
2021/10/29 11:55:47;;;;;;;2.17;1.95;;;;;;;23.18;36.93;98417.97;4880051;29;20028;-74
2021/10/29 12:09:22;;;;;;;2.05;1.85;;;;;;;18.95;45.78;98407.44;4880031;29;20029;-75
2021/10/29 12:12:07;;;;;;;2.63;1.50;;;;;;;19.40;44.49;98393.38;4876286;29;20499;-75
2021/10/29 12:14:35;;;;;;;3.95;1.90;;;;;;;18.59;46.94;98390.22;4872254;29;20112;-75
2021/10/29 12:17:35;;;;;;;2.20;1.73;;;;;;;18.66;47.33;98386.31;4879783;29;20025;-77
2021/10/29 12:20:10;;;;;;;3.20;2.20;;;;;;;17.75;48.90;98386.16;4879451;29;20037;-77
2021/10/29 12:22:40;;;;;;;2.95;1.77;;;;;;;17.48;49.84;98381.41;4879511;29;20077;-77
2021/10/29 13:03:08;;;;;;;1.95;1.77;;;;;;;18.09;49.61;98328.34;4871190;29;20048;-75
2021/10/29 13:05:35;;;;;;;2.92;1.63;;;;;;;18.01;49.75;98335.78;4871120;29;20033;-75
2021/10/29 13:08:15;;;;;;;2.22;1.90;;;;;;;17.90;50.51;98332.91;4878789;29;20039;-76
2021/10/29 13:10:41;;;;;;;4.30;1.83;;;;;;;17.43;50.94;98323.19;4878788;29;20539;-75
2021/10/29 13:13:27;;;;;;;2.45;2.25;;;;;;;17.56;51.41;98324.22;4867676;29;20391;-76
2021/10/29 13:16:00;;;;;;;2.28;1.80;;;;;;;16.87;52.66;98330.41;4878850;29;20581;-76
2021/10/29 13:18:33;;;;;;;2.85;1.98;;;;;;;17.38;51.05;98326.03;4878645;29;20036;-76
2021/10/29 13:51:11;;;;;;;1.90;1.42;;;;;;;16.86;50.19;98297.31;4878128;29;20478;-76
2021/10/29 14:28:39;;;;;;;2.42;1.33;;;;;;;16.44;49.30;98276.78;4873569;29;20499;-76
2021/10/29 14:31:21;;;;;;;0.80;0.80;;;;;;;16.43;48.06;98273.28;4859163;29;20041;-75
2021/10/29 14:33:52;;;;;;;1.65;0.88;;;;;;;16.25;47.70;98284.69;4859215;29;20061;-76
2021/10/29 14:36:20;;;;;;;1.05;0.93;;;;;;;16.30;48.08;98284.47;4859232;29;20026;-76
2021/10/29 14:39:09;;;;;;;1.40;0.93;;;;;;;16.34;49.83;98283.38;4859095;29;20475;-76
2021/10/29 14:41:54;;;;;;;2.65;1.05;;;;;;;16.10;51.47;98278.44;4861278;29;20112;-76
2021/10/29 14:44:24;;;;;;;2.00;1.50;;;;;;;15.97;52.56;98268.66;4869932;29;20667;-76
2021/10/29 14:49:43;;;;;;;0.98;0.80;;;;;;;15.59;54.19;98269.50;4877639;29;20045;-75
2021/10/29 15:05:18;;;;;;;1.23;1.13;;;;;;;15.19;57.38;98280.06;4877744;29;20025;-74
2021/10/29 15:16:07;;;;;;;1.92;1.10;;;;;;;14.83;60.25;98283.34;4880869;29;20116;-74
2021/10/29 15:43:14;;;;;;;3.72;2.55;;;;;;;12.82;69.82;98303.28;4874272;29;20064;-74
2021/10/29 15:45:26;;;;;;;5.72;2.90;;;;;;;12.75;70.12;98306.97;4858828;29;20043;-74
2021/10/29 15:50:22;;;;;;;5.65;2.15;;;;;;;12.64;70.75;98309.09;4862023;29;20085;-73
2021/10/29 15:52:52;;;;;;;3.55;2.38;;;;;;;12.44;72.54;98307.19;4861417;29;20029;-73
2021/10/29 15:55:29;;;;;;;4.72;2.38;;;;;;;12.30;72.86;98315.44;4861704;29;20029;-73
2021/10/29 15:58:41;;;;;;;7.90;3.75;;;;;;;12.20;74.30;98308.81;4860913;29;20065;-73
2021/10/29 16:00:58;;;;;;;4.93;3.53;;;;;;;12.02;75.11;98312.84;4858605;29;20069;-73
2021/10/29 16:17:14;;;;;;;9.25;3.53;;;;;;;10.95;81.10;98323.72;4880067;29;20043;-74
2021/10/29 16:19:40;;;;;;;12.73;5.57;;;;;;;10.87;81.14;98325.66;4872918;29;20033;-74
2021/10/29 16:22:17;;;;;;;11.88;6.35;;;;;;;10.96;80.35;98331.44;4861003;29;20025;-74
2021/10/29 16:24:53;;;;;;;15.05;4.13;;;;;;;10.86;80.65;98330.00;4860828;29;20108;-74
2021/10/29 16:27:18;;;;;;;35.88;10.75;;;;;;;10.78;80.54;98325.03;4861198;29;20042;-74
2021/10/29 16:29:46;;;;;;;21.00;7.38;;;;;;;10.61;81.61;98323.75;4860775;29;20089;-74
2021/10/29 16:32:16;;;;;;;13.43;6.50;;;;;;;10.55;82.10;98325.59;4861464;29;20057;-72
2021/10/29 16:34:41;;;;;;;41.33;10.88;;;;;;;10.46;82.55;98327.56;4860881;29;20030;-73
2021/10/29 16:37:07;;;;;;;45.35;15.45;;;;;;;10.33;83.00;98324.44;4861094;29;20029;-73
2021/10/29 16:39:34;;;;;;;45.58;14.82;;;;;;;10.19;84.11;98318.69;4862673;29;20052;-72
2021/10/29 16:41:59;;;;;;;20.13;7.80;;;;;;;10.30;82.88;98319.34;4875524;29;20077;-71
2021/10/29 16:44:25;;;;;;;18.08;4.90;;;;;;;10.35;82.63;98322.66;4871439;29;20380;-74
2021/10/29 16:46:51;;;;;;;9.85;5.22;;;;;;;10.43;81.21;98325.06;4879521;29;20036;-74
2021/10/29 16:49:17;;;;;;;8.48;4.47;;;;;;;10.40;81.45;98318.22;4879207;29;20076;-72
2021/10/29 16:51:43;;;;;;;11.48;3.25;;;;;;;10.26;82.34;98320.28;4879150;29;20062;-72
2021/10/29 16:54:10;;;;;;;18.02;8.27;;;;;;;10.10;83.05;98321.50;4879200;29;20452;-73
2021/10/29 16:56:35;;;;;;;18.45;8.35;;;;;;;9.87;84.04;98315.13;4879104;29;20033;-72
2021/10/29 16:59:00;;;;;;;16.70;9.75;;;;;;;9.79;84.74;98327.38;4879083;29;20376;-72
2021/10/29 17:01:26;;;;;;;5.28;3.13;;;;;;;9.74;85.57;98334.41;4878753;29;20025;-74
2021/10/29 17:03:51;;;;;;;3.47;2.35;;;;;;;9.54;86.39;98332.22;4879122;29;20747;-74
2021/10/29 17:06:16;;;;;;;4.93;2.58;;;;;;;9.51;86.98;98332.28;4878780;29;20025;-72
2021/10/29 17:08:41;;;;;;;2.63;2.28;;;;;;;9.34;88.20;98332.66;4875576;29;20031;-72
2021/10/29 17:11:12;;;;;;;3.58;1.27;;;;;;;9.14;89.70;98338.22;4867660;29;20025;-74
2021/10/29 17:13:38;;;;;;;3.10;2.03;;;;;;;9.06;90.36;98334.91;4871082;29;20086;-74
2021/10/29 17:16:03;;;;;;;1.52;1.42;;;;;;;9.00;90.66;98330.72;4878813;29;20475;-72
2021/10/29 17:18:29;;;;;;;2.50;1.75;;;;;;;8.96;90.87;98326.50;4877671;29;20036;-72
2021/10/29 17:20:54;;;;;;;1.95;1.83;;;;;;;8.96;90.47;98318.75;4878704;29;20039;-72
2021/10/29 17:23:19;;;;;;;3.83;3.08;;;;;;;8.97;90.55;98322.16;4878731;29;20380;-72
2021/10/29 17:25:45;;;;;;;4.82;2.65;;;;;;;8.90;90.58;98326.63;4865740;29;20077;-72
2021/10/29 17:28:10;;;;;;;6.40;3.15;;;;;;;8.91;91.25;98320.56;4867476;29;20029;-72
2021/10/29 17:30:36;;;;;;;4.28;2.50;;;;;;;8.99;90.49;98318.69;4878480;29;20033;-72
2021/10/29 17:33:02;;;;;;;1.83;1.40;;;;;;;8.99;90.73;98329.03;4878386;29;20115;-72
2021/10/29 17:35:27;;;;;;;1.88;1.77;;;;;;;8.92;91.23;98322.25;4877817;29;20100;-74
2021/10/29 17:37:52;;;;;;;2.03;1.85;;;;;;;8.81;91.69;98331.94;4878508;29;20029;-72
2021/10/29 17:40:18;;;;;;;2.40;2.20;;;;;;;8.72;92.52;98339.84;4877203;29;20112;-74
2021/10/29 17:42:43;;;;;;;2.30;2.10;;;;;;;8.63;92.74;98345.19;4860290;29;20455;-72
2021/10/29 17:45:11;;;;;;;6.30;3.63;;;;;;;8.58;93.50;98337.50;4859827;29;20040;-74
2021/10/29 17:47:37;;;;;;;1.83;1.73;;;;;;;8.57;93.73;98330.66;4859869;29;20080;-74
2021/10/29 17:50:03;;;;;;;5.88;3.60;;;;;;;8.57;94.00;98329.78;4859784;29;20030;-71
2021/10/29 17:52:28;;;;;;;3.50;2.55;;;;;;;8.54;94.02;98324.66;4859588;29;20034;-72
2021/10/29 17:54:56;;;;;;;2.03;1.70;;;;;;;8.57;94.17;98329.78;4859704;29;20077;-74
2021/10/29 17:57:24;;;;;;;4.22;2.40;;;;;;;8.57;94.30;98325.47;4859682;29;20029;-74
2021/10/29 17:59:50;;;;;;;2.90;2.35;;;;;;;8.46;94.34;98328.25;4859682;29;20034;-72
2021/10/29 18:02:21;;;;;;;2.60;2.33;;;;;;;8.42;94.36;98336.91;4858320;29;20029;-74
2021/10/29 18:04:47;;;;;;;1.83;1.70;;;;;;;8.30;95.13;98336.22;4859476;29;20510;-74
2021/10/29 18:07:13;;;;;;;2.70;2.45;;;;;;;8.35;95.32;98330.09;4859697;29;20037;-74
2021/10/29 18:09:38;;;;;;;4.60;2.47;;;;;;;8.30;95.74;98331.91;4859448;29;20025;-74
2021/10/29 18:12:08;;;;;;;2.20;1.58;;;;;;;8.23;96.16;98325.16;4859322;29;20036;-74
2021/10/29 18:14:35;;;;;;;4.95;2.67;;;;;;;8.20;96.31;98340.69;4859448;29;20081;-74
2021/10/29 18:17:02;;;;;;;6.78;3.53;;;;;;;8.18;96.22;98338.13;4859634;29;20041;-74
2021/10/29 18:19:27;;;;;;;4.40;2.97;;;;;;;8.14;96.80;98333.03;4859396;29;20097;-74
2021/10/29 18:21:52;;;;;;;2.65;2.45;;;;;;;8.16;96.62;98333.84;4859303;29;20033;-74
2021/10/29 18:24:18;;;;;;;2.65;2.00;;;;;;;8.09;96.87;98330.53;4859508;29;20622;-74
2021/10/29 18:26:43;;;;;;;5.88;2.05;;;;;;;8.11;97.07;98330.50;4859482;29;20395;-72
2021/10/29 18:29:10;;;;;;;3.45;3.13;;;;;;;8.08;97.25;98331.41;4858532;29;20386;-71
2021/10/29 18:31:36;;;;;;;3.03;2.45;;;;;;;8.09;97.15;98334.84;4859141;29;20064;-72
2021/10/29 18:34:02;;;;;;;5.15;2.42;;;;;;;7.98;97.39;98330.69;4859557;29;20391;-73
2021/10/29 18:36:28;;;;;;;2.47;2.13;;;;;;;7.92;97.62;98330.75;4859557;29;20022;-75
2021/10/29 18:38:54;;;;;;;3.50;2.10;;;;;;;7.88;98.08;98329.13;4859469;29;20041;-75
2021/10/29 18:41:21;;;;;;;2.35;2.15;;;;;;;7.87;98.44;98331.72;4860049;29;20034;-75
2021/10/29 18:43:47;;;;;;;3.50;2.60;;;;;;;7.86;98.67;98340.31;4865839;29;20025;-75
2021/10/29 18:46:13;;;;;;;2.92;2.65;;;;;;;7.88;97.74;98334.28;4859272;29;20491;-72
2021/10/29 18:48:39;;;;;;;3.03;2.75;;;;;;;7.82;98.07;98329.19;4862914;29;20033;-74
2021/10/29 18:51:05;;;;;;;3.78;2.78;;;;;;;7.74;98.42;98336.22;4862669;29;20614;-74
2021/10/29 18:53:31;;;;;;;4.20;2.60;;;;;;;7.72;98.78;98337.94;4862782;29;20040;-74
2021/10/29 18:55:56;;;;;;;4.50;2.40;;;;;;;7.70;98.62;98334.53;4861271;29;20384;-75
2021/10/29 18:58:22;;;;;;;6.13;3.63;;;;;;;7.69;98.91;98327.69;4862700;29;20061;-74
2021/10/29 19:00:48;;;;;;;3.95;3.33;;;;;;;7.67;98.85;98334.56;4862304;29;20476;-74
2021/10/29 19:03:13;;;;;;;6.68;2.72;;;;;;;7.61;99.05;98338.09;4862590;29;20044;-74
2021/10/29 19:05:40;;;;;;;2.58;2.38;;;;;;;7.56;99.18;98341.59;4862404;29;20030;-74
2021/10/29 19:08:05;;;;;;;2.42;2.22;;;;;;;7.55;99.09;98342.47;4862540;29;20108;-72
2021/10/29 19:10:31;;;;;;;20.88;4.53;;;;;;;7.58;99.04;98339.84;4862502;29;20507;-72
2021/10/29 19:12:57;;;;;;;2.53;2.22;;;;;;;7.57;99.28;98343.31;4875557;29;20037;-73
2021/10/29 19:15:23;;;;;;;2.83;1.92;;;;;;;7.53;99.28;98336.47;4871726;29;20029;-72
2021/10/29 19:17:48;;;;;;;2.50;2.22;;;;;;;7.50;99.35;98336.53;4874589;29;20074;-72
2021/10/29 19:20:13;;;;;;;3.95;2.67;;;;;;;7.48;99.35;98329.66;4880944;29;20402;-74
2021/10/29 19:22:39;;;;;;;4.63;2.65;;;;;;;7.52;99.10;98332.19;4880637;29;20033;-75
2021/10/29 19:25:06;;;;;;;2.72;2.30;;;;;;;7.46;99.54;98325.41;4880888;29;20025;-74
2021/10/29 19:27:32;;;;;;;2.38;2.22;;;;;;;7.46;99.35;98336.56;4880705;29;20061;-74
2021/10/29 19:29:57;;;;;;;2.70;2.38;;;;;;;7.40;99.44;98351.25;4880610;29;20033;-74
2021/10/29 19:32:22;;;;;;;3.58;2.63;;;;;;;7.44;99.11;98342.59;4880708;29;20025;-74
2021/10/29 19:34:50;;;;;;;3.25;2.42;;;;;;;7.47;98.93;98342.56;4880683;29;20029;-74
2021/10/29 19:42:11;;;;;;;1.50;1.40;;;;;;;7.43;98.50;98336.59;4869475;29;20033;-75
2021/10/29 19:44:37;;;;;;;4.57;3.22;;;;;;;7.39;98.67;98345.22;4872762;29;20518;-75
2021/10/29 19:47:03;;;;;;;3.47;2.55;;;;;;;7.33;98.58;98355.63;4880493;29;20029;-74
2021/10/29 19:49:28;;;;;;;3.35;2.72;;;;;;;7.33;98.76;98360.78;4880234;29;20028;-74
2021/10/29 19:51:57;;;;;;;5.65;4.50;;;;;;;7.35;98.52;98361.63;4880236;29;20033;-75
2021/10/29 19:54:24;;;;;;;6.18;2.92;;;;;;;7.31;98.22;98361.69;4878555;29;20029;-74
2021/10/29 19:56:52;;;;;;;2.42;2.22;;;;;;;7.30;98.26;98365.09;4861298;29;20209;-74
2021/10/29 19:59:18;;;;;;;4.88;3.00;;;;;;;7.30;97.93;98370.25;4860452;29;20550;-74
2021/10/29 20:01:43;;;;;;;4.45;3.40;;;;;;;7.27;98.32;98371.16;4861298;29;20109;-75
2021/10/29 20:04:09;;;;;;;6.88;2.67;;;;;;;7.24;98.27;98381.50;4861426;29;20025;-75
2021/10/29 20:06:35;;;;;;;3.45;3.10;;;;;;;7.22;98.25;98376.38;4860124;29;20041;-75
2021/10/29 20:09:00;;;;;;;5.90;3.50;;;;;;;7.17;98.20;98382.44;4861242;29;20032;-75
2021/10/29 20:11:26;;;;;;;3.35;2.92;;;;;;;7.24;97.86;98386.63;4860258;29;20040;-75
2021/10/29 20:13:51;;;;;;;10.65;5.45;;;;;;;7.18;97.67;98390.13;4861229;29;20060;-74
2021/10/29 20:16:17;;;;;;;6.35;4.25;;;;;;;7.25;97.51;98393.50;4861190;29;20472;-75
2021/10/29 20:18:46;;;;;;;2.65;2.50;;;;;;;7.14;97.83;98392.75;4861226;29;20044;-72
2021/10/29 20:21:12;;;;;;;3.60;3.03;;;;;;;7.11;97.91;98390.25;4860220;29;20033;-74
2021/10/29 20:23:38;;;;;;;3.85;2.83;;;;;;;7.04;97.88;98397.16;4852396;29;20475;-72
2021/10/29 20:26:04;;;;;;;3.03;2.45;;;;;;;6.93;98.51;98391.28;4860899;29;20116;-74
2021/10/29 20:28:30;;;;;;;3.33;3.03;;;;;;;6.91;98.71;98393.88;4861057;29;20391;-72
2021/10/29 20:30:57;;;;;;;4.55;4.10;;;;;;;6.92;98.35;98395.56;4860520;29;20037;-74
2021/10/29 20:33:22;;;;;;;5.28;4.82;;;;;;;6.92;98.47;98405.88;4860823;29;20041;-72
2021/10/29 20:35:48;;;;;;;5.55;4.50;;;;;;;6.86;98.54;98399.91;4860700;29;20033;-74
2021/10/29 20:38:13;;;;;;;4.57;2.65;;;;;;;6.90;98.14;98402.44;4860794;29;20029;-72
2021/10/29 20:40:40;;;;;;;2.30;2.08;;;;;;;6.82;98.42;98393.97;4859952;29;20032;-72
2021/10/29 20:43:05;;;;;;;3.63;2.80;;;;;;;6.80;98.56;98400.81;4860396;29;20119;-75
2021/10/29 20:45:32;;;;;;;3.78;2.60;;;;;;;6.73;98.29;98401.75;4860556;29;20438;-74
2021/10/29 20:47:59;;;;;;;2.85;2.65;;;;;;;6.66;98.33;98397.50;4859874;29;20031;-74
2021/10/29 20:50:25;;;;;;;4.43;3.22;;;;;;;6.64;98.50;98399.25;4860678;29;20177;-75
2021/10/29 20:52:51;;;;;;;5.10;3.78;;;;;;;6.57;98.42;98402.72;4859155;29;20504;-74
2021/10/29 20:55:17;;;;;;;2.83;2.63;;;;;;;6.52;98.64;98409.63;4860630;29;20026;-74
2021/10/29 20:57:43;;;;;;;4.60;3.13;;;;;;;6.49;98.59;98400.25;4860468;29;20029;-74